Time;durP1;ratioP1;P1;durP2;ratioP2;P2;SDS_P1;SDS_P2;PMS_P1;PMS_P2;Temp;Humidity;BMP_temperature;BMP_pressure;BME280_temperature;BME280_humidity;BME280_pressure;Samples;Min_cycle;Max_cycle;Signal;HPM_P1;HPM_P2
2022/09/28 05:54:17;;;;;;;;;5.00;4.00;;;;;13.87;69.09;99798.44;2624924;23;45293;-77
2022/09/28 05:55:27;;;;;;;;;5.50;5.00;;;;;13.89;68.97;99801.81;2385249;28;45395;-76
2022/09/28 05:56:38;;;;;;;;;4.25;3.00;;;;;13.89;68.97;99802.69;2390561;28;45224;-76
2022/09/28 05:57:48;;;;;;;;;3.25;2.00;;;;;13.91;69.01;99800.78;2393052;28;46171;-76
2022/09/28 05:58:58;;;;;;;;;4.25;2.50;;;;;13.91;68.87;99798.16;2392062;28;45175;-76
2022/09/28 06:00:09;;;;;;;;;3.50;2.75;;;;;13.94;69.09;99805.03;2394685;28;46298;-76
2022/09/28 06:01:20;;;;;;;;;6.50;4.00;;;;;13.94;68.52;99797.09;2394933;28;44575;-77
2022/09/28 06:02:30;;;;;;;;;4.00;3.00;;;;;13.94;68.48;99803.25;2393497;28;45630;-77
2022/09/28 06:03:41;;;;;;;;;3.50;3.50;;;;;13.94;68.63;99802.38;2394946;28;44754;-77
2022/09/28 06:04:52;;;;;;;;;4.00;4.00;;;;;13.95;68.40;99806.75;2394788;28;45456;-77
2022/09/28 06:06:03;;;;;;;;;3.50;3.00;;;;;13.95;68.58;99806.75;2392941;28;45552;-77
2022/09/28 06:07:13;;;;;;;;;3.00;1.25;;;;;13.97;68.93;99809.28;2392559;28;46521;-77
2022/09/28 06:08:23;;;;;;;;;3.75;2.75;;;;;13.99;68.75;99812.66;2387992;28;45468;-77
2022/09/28 06:09:33;;;;;;;;;4.00;4.00;;;;;14.00;68.52;99809.91;2388490;28;46179;-77
2022/09/28 06:10:44;;;;;;;;;5.25;3.50;;;;;14.02;68.71;99812.47;2394458;28;45364;-77
2022/09/28 06:11:56;;;;;;;;;6.50;5.25;;;;;14.03;68.71;99807.09;2386425;28;45575;-77
2022/09/28 06:13:09;;;;;;;;;3.00;3.00;;;;;14.04;69.11;99811.44;2385508;28;45271;-77
2022/09/28 06:14:19;;;;;;;;;2.00;2.00;;;;;14.07;69.01;99810.41;2391952;28;46387;-77
2022/09/28 06:15:32;;;;;;;;;5.00;4.00;;;;;14.09;68.92;99812.94;2394885;28;45155;-79
2022/09/28 06:16:43;;;;;;;;;2.75;2.75;;;;;14.10;68.86;99807.53;2394621;28;45353;-80
2022/09/28 06:18:06;;;;;;;;;3.25;3.25;;;;;14.15;68.43;99816.03;2394782;28;45425;-80
2022/09/28 06:19:17;;;;;;;;;5.50;4.50;;;;;14.12;68.50;99812.75;2394644;28;45460;-79
2022/09/28 06:20:31;;;;;;;;;6.75;6.75;;;;;14.15;68.71;99816.03;2394849;28;45314;-79
2022/09/28 06:21:42;;;;;;;;;9.50;7.00;;;;;14.12;68.29;99805.69;2391321;28;45435;-79
2022/09/28 06:22:53;;;;;;;;;9.75;7.75;;;;;14.15;68.64;99810.75;2385793;28;45523;-79
2022/09/28 06:24:04;;;;;;;;;9.25;6.25;;;;;14.15;68.28;99812.53;2388080;28;46621;-79
2022/09/28 06:25:14;;;;;;;;;2.75;2.75;;;;;14.15;68.45;99813.38;2392331;28;45439;-79
2022/09/28 06:26:24;;;;;;;;;6.25;5.00;;;;;14.16;68.25;99816.88;2392248;28;46513;-79
2022/09/28 06:27:35;;;;;;;;;5.00;5.00;;;;;14.16;68.63;99817.75;2394731;28;45210;-79
2022/09/28 06:28:45;;;;;;;;;3.25;3.25;;;;;14.16;68.27;99814.25;2392270;28;45349;-79
2022/09/28 06:29:55;;;;;;;;;4.00;4.00;;;;;14.15;68.07;99823.97;2394789;28;44653;-79
2022/09/28 06:31:06;;;;;;;;;2.00;2.00;;;;;14.14;68.45;99817.00;2394490;28;45242;-79
2022/09/28 06:32:16;;;;;;;;;3.00;3.00;;;;;14.16;68.16;99819.53;2394600;28;45280;-79
2022/09/28 06:33:26;;;;;;;;;4.00;2.25;;;;;14.17;68.17;99819.41;2394466;28;46198;-79
2022/09/28 06:34:37;;;;;;;;;2.00;2.00;;;;;14.19;68.85;99822.00;2394809;28;44605;-79
2022/09/28 06:35:47;;;;;;;;;4.50;3.50;;;;;14.22;68.60;99820.94;2394056;28;45442;-79
2022/09/28 06:36:57;;;;;;;;;3.75;3.75;;;;;14.22;67.98;99813.88;2393370;28;45163;-79
2022/09/28 06:38:08;;;;;;;;;3.25;3.25;;;;;14.23;68.25;99817.34;2392277;28;45497;-79
2022/09/28 06:39:18;;;;;;;;;5.00;4.00;;;;;14.23;68.30;99814.69;2385040;28;45164;-79
2022/09/28 06:40:29;;;;;;;;;5.75;3.00;;;;;14.27;68.47;99821.50;2392684;28;46402;-79
2022/09/28 06:41:40;;;;;;;;;5.75;5.25;;;;;14.28;68.02;99824.03;2394090;28;45299;-79
2022/09/28 06:43:13;;;;;;;;;6.25;6.00;;;;;14.30;67.85;99821.28;2393795;28;46071;-79
2022/09/28 06:44:24;;;;;;;;;10.75;4.25;;;;;14.29;67.71;99831.03;2393911;28;45471;-79
2022/09/28 06:45:35;;;;;;;;;12.00;10.75;;;;;14.31;67.76;99833.56;2388659;28;46222;-79
2022/09/28 06:46:46;;;;;;;;;8.25;7.00;;;;;14.28;67.57;99829.34;2384862;28;44789;-79
2022/09/28 06:47:58;;;;;;;;;8.75;8.00;;;;;14.29;67.67;99841.63;2385122;28;45250;-79
2022/09/28 06:49:08;;;;;;;;;9.00;6.25;;;;;14.28;67.43;99839.03;2389835;28;45184;-79
2022/09/28 06:50:19;;;;;;;;;9.50;6.75;;;;;14.26;67.16;99833.88;2394284;28;46078;-79
2022/09/28 06:51:29;;;;;;;;;8.00;5.00;;;;;14.25;67.58;99841.88;2393992;28;44665;-80
2022/09/28 06:52:39;;;;;;;;;7.75;6.00;;;;;14.25;67.60;99840.09;2385185;28;45234;-80
2022/09/28 06:53:52;;;;;;;;;6.75;6.00;;;;;14.27;67.60;99842.66;2389450;28;44637;-80
2022/09/28 06:55:03;;;;;;;;;7.25;4.75;;;;;14.28;67.71;99844.34;2392680;28;45262;-80
2022/09/28 06:56:13;;;;;;;;;8.00;8.00;;;;;14.31;67.21;99848.56;2388817;28;45471;-80
2022/09/28 06:57:24;;;;;;;;;9.50;7.50;;;;;14.32;67.63;99850.28;2377879;28;47051;-80
2022/09/28 06:58:34;;;;;;;;;3.25;3.25;;;;;14.31;67.51;99849.44;2383518;28;45496;-80
2022/09/28 06:59:45;;;;;;;;;4.75;3.50;;;;;14.33;67.88;99850.19;2394509;28;45373;-80
2022/09/28 07:00:59;;;;;;;;;6.50;6.25;;;;;14.35;67.56;99856.22;2385508;28;45452;-80
2022/09/28 07:02:13;;;;;;;;;7.75;5.00;;;;;14.37;67.86;99848.22;2388943;28;46377;-80
2022/09/28 07:03:23;;;;;;;;;7.75;5.00;;;;;14.40;67.96;99853.28;2385160;28;45334;-80
2022/09/28 07:04:34;;;;;;;;;7.00;6.50;;;;;14.43;67.98;99855.72;2393198;28;46295;-79
2022/09/28 07:05:48;;;;;;;;;8.75;6.00;;;;;14.46;67.85;99860.84;2394390;28;44663;-79
2022/09/28 07:06:58;;;;;;;;;6.75;4.00;;;;;14.47;67.61;99854.59;2394209;28;45289;-79
2022/09/28 07:08:09;;;;;;;;;5.50;5.50;;;;;14.52;67.72;99862.22;2393626;28;45159;-79
2022/09/28 07:09:19;;;;;;;;;7.75;6.50;;;;;14.55;67.85;99862.03;2393374;28;46551;-79
2022/09/28 07:10:30;;;;;;;;;6.00;6.00;;;;;14.56;68.07;99861.09;2393796;28;44627;-79
2022/09/28 07:11:43;;;;;;;;;7.75;5.50;;;;;14.56;66.70;99853.16;2393603;28;45373;-79
2022/09/28 07:12:54;;;;;;;;;5.00;5.00;;;;;14.58;66.56;99867.13;2386758;28;45358;-79
2022/09/28 07:14:05;;;;;;;;;6.25;4.25;;;;;14.53;66.20;99858.63;2378915;28;46139;-79
2022/09/28 07:15:17;;;;;;;;;2.00;2.00;;;;;14.52;65.34;99862.22;2387254;28;45220;-79
2022/09/28 07:16:27;;;;;;;;;4.00;3.75;;;;;14.48;65.00;99868.66;2394229;28;45412;-79
2022/09/28 07:17:37;;;;;;;;;2.00;2.00;;;;;14.46;64.68;99870.56;2394308;28;45219;-79
2022/09/28 07:18:48;;;;;;;;;1.75;1.50;;;;;14.41;64.99;99862.91;2394193;28;46592;-79
2022/09/28 07:19:58;;;;;;;;;2.00;1.25;;;;;14.40;65.38;99869.13;2391533;28;44778;-79
2022/09/28 07:21:08;;;;;;;;;4.50;3.00;;;;;14.37;64.93;99872.00;2384795;28;46319;-79
2022/09/28 07:22:19;;;;;;;;;3.25;1.25;;;;;14.37;65.25;99874.63;2393750;28;44639;-79
2022/09/28 07:23:29;;;;;;;;;1.50;1.00;;;;;14.36;65.38;99865.00;2394144;28;45322;-79
2022/09/28 07:24:40;;;;;;;;;1.00;1.00;;;;;14.33;64.36;99868.69;2393850;28;45278;-79
2022/09/28 07:25:50;;;;;;;;;4.50;2.75;;;;;14.34;65.64;99875.69;2393412;28;45339;-79
2022/09/28 07:27:04;;;;;;;;;2.00;2.00;;;;;14.32;64.57;99872.25;2394143;28;45559;-79
2022/09/28 07:28:16;;;;;;;;;3.00;1.75;;;;;14.33;64.80;99873.97;2392401;28;46456;-79
2022/09/28 07:29:27;;;;;;;;;3.50;2.00;;;;;14.33;64.66;99873.97;2389458;28;45248;-79
2022/09/28 07:30:37;;;;;;;;;1.75;1.25;;;;;14.34;65.07;99873.03;2393312;28;45465;-79
2022/09/28 07:31:47;;;;;;;;;2.00;2.00;;;;;14.33;64.79;99876.63;2391469;28;45453;-79
2022/09/28 07:32:59;;;;;;;;;2.00;0.25;;;;;14.35;64.94;99877.34;2375020;28;46215;-79
2022/09/28 07:34:10;;;;;;;;;2.25;2.25;;;;;14.34;65.27;99873.03;2386720;28;45322;-80
2022/09/28 07:35:21;;;;;;;;;4.25;3.00;;;;;14.37;65.56;99875.47;2393926;28;45647;-80
2022/09/28 07:36:33;;;;;;;;;4.00;4.00;;;;;14.40;64.82;99874.44;2394201;28;44785;-79
2022/09/28 07:37:44;;;;;;;;;2.00;2.00;;;;;14.41;65.10;99876.13;2383932;28;48199;-79
2022/09/28 07:38:54;;;;;;;;;4.25;2.75;;;;;14.45;65.11;99882.91;2376228;28;45371;-79
2022/09/28 07:41:38;;;;;;;;;4.50;2.00;;;;;14.49;64.99;99883.59;2393998;28;44625;-79
2022/09/28 07:42:49;;;;;;;;;4.50;3.25;;;;;14.53;64.25;99882.44;2393624;28;45515;-79
2022/09/28 07:44:06;;;;;;;;;4.00;2.25;;;;;14.57;64.74;99888.41;2393002;28;45393;-80
2022/09/28 07:45:19;;;;;;;;;2.00;2.00;;;;;14.61;65.31;99885.44;2379834;28;46987;-80
2022/09/28 07:46:31;;;;;;;;;3.00;3.00;;;;;14.63;65.07;99883.56;2378066;28;45276;-79
2022/09/28 07:47:42;;;;;;;;;4.00;3.25;;;;;14.71;65.37;99887.50;2390799;28;45440;-79
2022/09/28 07:48:52;;;;;;;;;6.75;5.00;;;;;14.76;65.11;99889.84;2394095;28;45377;-79
2022/09/28 07:50:03;;;;;;;;;4.25;4.00;;;;;14.83;64.40;99889.34;2385246;28;46230;-79
2022/09/28 07:51:13;;;;;;;;;4.00;3.50;;;;;14.87;64.50;99891.81;2379927;28;45441;-80
2022/09/28 07:52:25;;;;;;;;;2.00;2.00;;;;;14.89;64.12;99896.06;2386695;28;45298;-80
2022/09/28 07:53:37;;;;;;;;;3.25;3.25;;;;;14.94;64.48;99895.75;2393398;28;44698;-79
2022/09/28 07:54:50;;;;;;;;;3.25;2.50;;;;;14.97;63.08;99898.22;2383317;28;47115;-79
2022/09/28 07:56:06;;;;;;;;;2.25;2.25;;;;;14.98;63.13;99899.91;2387276;28;45382;-79
2022/09/28 07:57:18;;;;;;;;;6.75;4.00;;;;;14.98;64.05;99902.56;2393975;28;45527;-79
2022/09/28 07:58:31;;;;;;;;;4.00;4.00;;;;;14.98;64.04;99894.63;2393541;28;44605;-79
2022/09/28 07:59:42;;;;;;;;;3.00;1.00;;;;;15.01;62.08;99907.66;2387960;28;46656;-79
2022/09/28 08:00:52;;;;;;;;;2.50;1.25;;;;;15.01;62.28;99902.38;2388290;28;44624;-79
2022/09/28 08:02:03;;;;;;;;;1.00;1.00;;;;;15.03;63.40;99912.84;2384258;28;45346;-80
2022/09/28 08:03:18;;;;;;;;;2.00;2.00;;;;;15.06;63.19;99908.19;2393301;28;45432;-79
2022/09/28 08:04:29;;;;;;;;;3.00;3.00;;;;;15.06;61.38;99902.91;2388878;28;45641;-79
2022/09/28 08:05:41;;;;;;;;;3.25;3.25;;;;;15.05;62.45;99909.16;2390084;28;45468;-79
2022/09/28 08:06:51;;;;;;;;;3.75;2.75;;;;;15.05;62.25;99906.50;2391150;28;45619;-79
2022/09/28 08:08:02;;;;;;;;;5.75;3.50;;;;;15.05;61.21;99906.50;2393078;28;45522;-79
2022/09/28 08:09:12;;;;;;;;;4.25;3.75;;;;;15.06;62.43;99910.84;2391782;28;46426;-79
2022/09/28 08:10:23;;;;;;;;;3.50;2.25;;;;;15.07;62.37;99909.91;2394016;28;45257;-79
2022/09/28 08:11:34;;;;;;;;;2.25;2.25;;;;;15.09;61.90;99911.59;2387783;28;45407;-79
2022/09/28 08:12:45;;;;;;;;;1.25;1.25;;;;;15.12;61.70;99911.38;2388204;28;44783;-80
2022/09/28 08:13:56;;;;;;;;;3.00;2.00;;;;;15.10;61.28;99911.50;2387800;28;45450;-80
2022/09/28 08:15:09;;;;;;;;;2.00;1.00;;;;;15.09;61.39;99906.31;2381850;28;46212;-80
2022/09/28 08:16:19;;;;;;;;;3.25;1.00;;;;;15.08;61.47;99910.75;2385965;28;45766;-80
2022/09/28 08:17:29;;;;;;;;;2.75;1.75;;;;;15.04;60.04;99909.22;2384410;28;45375;-79
2022/09/28 08:18:40;;;;;;;;;0.00;0.00;;;;;15.01;60.79;99905.03;2382212;28;45812;-80
2022/09/28 08:22:51;;;;;;;;;2.25;1.00;;;;;15.04;61.25;99912.75;2393333;28;45180;-80
2022/09/28 08:24:02;;;;;;;;;2.00;2.00;;;;;15.03;60.74;99903.13;2393069;28;46408;-80
2022/09/28 08:25:12;;;;;;;;;4.00;3.00;;;;;15.03;61.44;99913.69;2393321;28;45404;-80
2022/09/28 08:26:23;;;;;;;;;2.00;1.50;;;;;15.05;61.59;99914.44;2393550;28;45492;-80
2022/09/28 08:27:33;;;;;;;;;1.50;1.50;;;;;15.05;61.37;99911.81;2392242;28;44757;-80
2022/09/28 08:28:45;;;;;;;;;2.25;2.25;;;;;15.04;60.34;99920.69;2392777;28;45452;-80
2022/09/28 08:29:55;;;;;;;;;2.00;1.00;;;;;15.06;60.92;99924.06;2387506;28;45524;-80
2022/09/28 08:31:06;;;;;;;;;1.75;1.75;;;;;15.03;61.73;99919.00;2384001;28;45330;-80
2022/09/28 08:32:18;;;;;;;;;2.00;2.00;;;;;15.03;61.33;99919.00;2385848;28;45232;-80
2022/09/28 08:33:28;;;;;;;;;3.00;2.00;;;;;15.03;62.03;99921.63;2379011;28;46240;-80
2022/09/28 08:34:40;;;;;;;;;1.50;1.00;;;;;15.06;62.38;99920.59;2380464;28;44708;-80
2022/09/28 08:35:58;;;;;;;;;1.50;1.50;;;;;15.05;60.31;99922.38;2393659;28;45297;-80
2022/09/28 08:37:09;;;;;;;;;1.25;1.00;;;;;15.07;60.13;99924.91;2392755;28;45273;-80
2022/09/28 08:38:20;;;;;;;;;5.25;3.00;;;;;15.08;60.92;99926.63;2388296;28;45562;-80
2022/09/28 08:39:31;;;;;;;;;4.75;3.00;;;;;15.09;61.26;99916.91;2388766;28;45164;-80
2022/09/28 08:41:15;;;;;;;;;2.50;2.25;;;;;15.13;61.29;99921.88;2384486;28;46230;-80
2022/09/28 08:42:34;;;;;;;;;5.00;2.00;;;;;15.15;60.52;99927.06;2390012;28;44672;-80
2022/09/28 08:43:54;;;;;;;;;3.00;2.00;;;;;15.14;60.68;99923.56;2393128;28;45662;-80
2022/09/28 08:45:18;;;;;;;;;0.50;0.50;;;;;15.10;57.24;99918.59;2392052;28;45171;-80
2022/09/28 08:46:34;;;;;;;;;1.25;1.00;;;;;15.05;57.36;99921.53;2376910;28;45849;-80
2022/09/28 08:49:36;;;;;;;;;1.00;0.00;;;;;14.95;57.85;99921.28;2387276;28;45845;-79
2022/09/28 08:51:05;;;;;;;;;1.00;1.00;;;;;14.93;57.11;99929.31;2393454;28;45269;-79
2022/09/28 08:52:24;;;;;;;;;0.50;0.50;;;;;14.92;57.85;99929.41;2392757;28;45455;-80
2022/09/28 08:53:40;;;;;;;;;0.25;0.00;;;;;14.92;58.05;99926.75;2388448;28;44767;-80
2022/09/28 08:55:15;;;;;;;;;1.00;1.00;;;;;14.94;57.67;99927.50;2386425;28;45505;-80
2022/09/28 08:56:30;;;;;;;;;2.00;1.00;;;;;14.98;58.19;99928.16;2393523;28;45407;-80
2022/09/28 08:57:49;;;;;;;;;4.00;1.00;;;;;14.96;57.78;99923.00;2388945;28;45378;-80
2022/09/28 08:59:04;;;;;;;;;2.00;1.00;;;;;15.00;58.16;99935.06;2382927;28;46523;-80
2022/09/28 09:00:31;;;;;;;;;1.00;1.00;;;;;15.00;57.02;99931.56;2377251;28;46654;-80
2022/09/28 09:02:02;;;;;;;;;0.00;0.00;;;;;14.98;56.78;99931.66;2386969;28;45423;-80
2022/09/28 09:03:16;;;;;;;;;0.75;0.75;;;;;15.00;55.94;99932.41;2387150;28;46327;-80
2022/09/28 09:04:26;;;;;;;;;0.25;0.25;;;;;15.01;56.82;99931.47;2384340;28;45216;-80
2022/09/28 09:06:14;;;;;;;;;0.00;0.00;;;;;15.06;57.33;99934.66;2383895;28;46561;-80
2022/09/28 09:07:41;;;;;;;;;2.00;1.00;;;;;15.11;57.61;99925.59;2379164;28;44824;-80
2022/09/28 09:09:09;;;;;;;;;1.00;1.00;;;;;15.13;56.47;99929.84;2392062;28;46791;-80
2022/09/28 09:10:45;;;;;;;;;1.00;1.00;;;;;15.16;55.75;99929.59;2393472;28;45259;-80
2022/09/28 09:12:07;;;;;;;;;0.00;0.00;;;;;15.14;54.79;99925.34;2393389;28;46378;-80
2022/09/28 09:13:44;;;;;;;;;0.75;0.75;;;;;15.16;54.91;99934.91;2393079;28;45310;-80
2022/09/28 09:15:09;;;;;;;;;0.75;0.75;;;;;15.21;56.26;99933.78;2387511;28;45452;-80
2022/09/28 09:16:38;;;;;;;;;1.00;1.00;;;;;15.23;55.97;99935.38;2384501;28;45236;-80
2022/09/28 09:18:09;;;;;;;;;1.25;1.25;;;;;15.27;55.73;99928.06;2391637;28;46932;-80
2022/09/28 09:19:29;;;;;;;;;0.00;0.00;;;;;15.29;56.25;99927.00;2389031;28;45245;-80
2022/09/28 09:20:55;;;;;;;;;1.00;1.00;;;;;15.34;56.21;99933.78;2390131;28;45642;-80
2022/09/28 09:22:20;;;;;;;;;0.00;0.00;;;;;15.35;56.78;99932.84;2383680;28;44685;-80
2022/09/28 09:23:37;;;;;;;;;1.00;1.00;;;;;15.39;56.77;99934.34;2392813;28;45527;-80
2022/09/28 09:24:50;;;;;;;;;1.00;1.00;;;;;15.45;56.92;99933.94;2388706;28;45437;-80
2022/09/28 09:26:17;;;;;;;;;3.25;1.00;;;;;15.50;55.41;99942.44;2373276;28;46017;-80
2022/09/28 09:27:31;;;;;;;;;2.00;1.00;;;;;15.49;54.16;99938.06;2378714;28;45373;-80
2022/09/28 09:29:19;;;;;;;;;2.75;1.00;;;;;15.50;56.32;99942.44;2384106;28;45313;-80
2022/09/28 09:30:43;;;;;;;;;0.00;0.00;;;;;15.48;55.53;99938.19;2384077;28;45358;-80
2022/09/28 09:32:08;;;;;;;;;2.75;1.00;;;;;15.49;54.59;99940.72;2392248;28;45469;-80
2022/09/28 09:33:42;;;;;;;;;7.00;0.00;;;;;15.48;54.51;99940.84;2391885;28;44739;-80
2022/09/28 09:35:16;;;;;;;;;2.00;0.50;;;;;15.43;52.37;99941.16;2388829;28;45774;-80
2022/09/28 09:36:39;;;;;;;;;0.75;0.25;;;;;15.41;54.53;99945.66;2389396;28;45258;-80
2022/09/28 09:38:18;;;;;;;;;2.00;1.00;;;;;15.40;55.05;99944.00;2393509;28;48017;-80
2022/09/28 09:39:46;;;;;;;;;0.75;0.75;;;;;15.41;54.70;99945.66;2384522;28;45285;-80
2022/09/28 09:41:12;;;;;;;;;0.00;0.00;;;;;15.40;55.11;99938.69;2381401;28;45475;-80
2022/09/28 09:42:40;;;;;;;;;1.00;1.00;;;;;15.41;56.23;99930.63;2392334;28;45448;-80
2022/09/28 09:44:03;;;;;;;;;3.50;1.75;;;;;15.46;56.32;99930.31;2393832;28;45438;-81
2022/09/28 09:45:17;;;;;;;;;1.50;1.00;;;;;15.54;55.63;99937.75;2377806;28;45582;-96
2022/09/28 09:47:07;;;;;;;;;1.25;1.00;;;;;15.57;54.14;99936.72;2386786;28;45500;-96
2022/09/28 09:48:26;;;;;;;;;1.50;1.50;;;;;15.56;54.81;99940.28;2348467;29;44717;-92
2022/09/28 09:49:47;;;;;;;;;1.00;1.00;;;;;15.57;52.82;99939.34;2351542;29;47161;-90
2022/09/28 09:51:01;;;;;;;;;0.00;0.00;;;;;15.56;53.14;99940.28;2381641;28;44586;-91
2022/09/28 09:52:28;;;;;;;;;3.25;0.25;;;;;15.53;53.74;99941.38;2389695;28;46901;-90
2022/09/28 09:53:52;;;;;;;;;1.25;0.00;;;;;15.48;52.76;99936.38;2388077;28;44578;-91
2022/09/28 09:55:12;;;;;;;;;1.00;1.00;;;;;15.48;53.32;99938.19;2379989;28;48407;-94
2022/09/28 09:56:52;;;;;;;;;2.00;1.00;;;;;15.41;52.03;99935.06;2382131;28;45488;-89
2022/09/28 09:58:09;;;;;;;;;1.00;1.00;;;;;15.43;53.44;99930.56;2365297;28;47089;-89
2022/09/28 09:59:25;;;;;;;;;1.00;1.00;;;;;15.41;54.00;99930.63;2379158;28;45473;-89
2022/09/28 10:00:43;;;;;;;;;2.50;1.25;;;;;15.41;54.19;99929.78;2391309;28;47134;-91
2022/09/28 10:01:54;;;;;;;;;1.25;1.00;;;;;15.41;55.08;99927.13;2393497;28;45490;-90
2022/09/28 10:03:05;;;;;;;;;2.50;1.00;;;;;15.45;54.47;99931.28;2382172;28;48500;-91
2022/09/28 10:05:01;;;;;;;;;2.75;2.00;;;;;15.48;54.92;99928.41;2375620;28;45230;-91
2022/09/28 10:06:19;;;;;;;;;2.00;1.00;;;;;15.55;55.26;99930.66;2355126;29;48032;-90
2022/09/28 10:07:51;;;;;;;;;2.00;1.75;;;;;15.62;54.97;99934.59;2351532;29;45227;-91
2022/09/28 10:09:12;;;;;;;;;5.75;4.00;;;;;15.67;54.78;99939.59;2381489;28;46386;-90
2022/09/28 10:10:37;;;;;;;;;2.75;2.00;;;;;15.68;54.38;99928.06;2377431;28;45585;-91
2022/09/28 10:11:49;;;;;;;;;2.75;1.00;;;;;15.70;54.79;99931.44;2381379;28;46925;-91
2022/09/28 10:12:59;;;;;;;;;2.25;1.75;;;;;15.68;52.83;99930.72;2388029;28;45331;-94
2022/09/28 10:14:21;;;;;;;;;0.75;0.75;;;;;15.72;52.97;99927.75;2384781;28;47262;-95
2022/09/28 10:15:34;;;;;;;;;1.75;1.00;;;;;15.73;51.77;99928.56;2378995;28;45464;-93
2022/09/28 10:16:47;;;;;;;;;1.75;1.00;;;;;15.78;52.32;99933.56;2378565;28;47203;-94
2022/09/28 10:18:02;;;;;;;;;1.50;1.00;;;;;15.78;52.89;99928.28;2378811;28;44819;-93
2022/09/28 10:19:14;;;;;;;;;1.75;0.75;;;;;15.81;52.24;99930.69;2378243;28;48183;-91
2022/09/28 10:20:28;;;;;;;;;2.00;1.00;;;;;15.89;52.63;99928.38;2377537;28;45464;-90
2022/09/28 10:21:40;;;;;;;;;1.00;1.00;;;;;15.91;52.56;99926.47;2384797;28;46543;-90
2022/09/28 10:22:54;;;;;;;;;1.00;1.00;;;;;15.92;51.83;99930.81;2395766;28;45253;-92
2022/09/28 10:24:07;;;;;;;;;1.50;1.50;;;;;15.91;51.17;99931.78;2391506;28;47503;-84
2022/09/28 10:25:19;;;;;;;;;2.00;1.75;;;;;15.91;52.43;99926.47;2374804;28;45499;-81
2022/09/28 10:26:36;;;;;;;;;2.00;2.00;;;;;15.93;53.08;99926.34;2382131;28;45592;-81
2022/09/28 10:27:51;;;;;;;;;2.25;1.00;;;;;15.94;51.23;99925.41;2392818;28;45341;-81
2022/09/28 10:29:05;;;;;;;;;2.00;2.00;;;;;15.95;52.50;99917.34;2375157;28;47557;-81
2022/09/28 10:30:17;;;;;;;;;1.75;1.00;;;;;15.97;51.07;99922.56;2379758;28;45270;-81
2022/09/28 10:31:47;;;;;;;;;1.00;1.00;;;;;15.99;52.28;99923.28;2386381;28;45385;-81
2022/09/28 10:33:00;;;;;;;;;3.00;1.00;;;;;16.03;52.38;99919.47;2385520;28;45442;-80
2022/09/28 10:34:13;;;;;;;;;0.75;0.75;;;;;16.07;51.84;99923.66;2382750;28;47009;-81
2022/09/28 10:35:30;;;;;;;;;2.00;1.00;;;;;16.08;49.92;99920.03;2380806;28;45276;-82
2022/09/28 10:36:48;;;;;;;;;4.00;1.00;;;;;16.15;52.63;99924.91;2389822;28;46741;-80
2022/09/28 10:38:05;;;;;;;;;1.75;1.50;;;;;16.20;51.20;99922.78;2383085;28;45460;-80
2022/09/28 10:39:32;;;;;;;;;2.00;2.00;;;;;16.22;52.25;99920.88;2385568;28;46502;-80
2022/09/28 10:40:48;;;;;;;;;0.50;0.50;;;;;16.25;50.11;99919.81;2391703;28;45357;-80
2022/09/28 10:42:03;;;;;;;;;1.00;1.00;;;;;16.29;51.48;99922.16;2384070;28;46198;-80
2022/09/28 10:43:28;;;;;;;;;1.00;0.50;;;;;16.36;52.50;99919.03;2386540;28;45449;-80
2022/09/28 10:44:48;;;;;;;;;3.25;3.25;;;;;16.44;52.42;99916.72;2384318;28;47273;-80
2022/09/28 10:46:04;;;;;;;;;1.25;1.25;;;;;16.47;50.27;99918.31;2378258;28;44610;-80
2022/09/28 10:47:18;;;;;;;;;1.00;0.50;;;;;16.49;51.57;99917.22;2381873;28;47132;-80
2022/09/28 10:48:52;;;;;;;;;2.00;2.00;;;;;16.52;51.73;99917.00;2380931;28;45373;-80
2022/09/28 10:50:13;;;;;;;;;0.25;0.25;;;;;16.54;50.25;99911.59;2380702;28;45543;-80
2022/09/28 10:51:42;;;;;;;;;0.00;0.00;;;;;16.54;48.56;99920.38;2384821;28;45357;-80
2022/09/28 10:52:52;;;;;;;;;1.50;1.00;;;;;16.50;50.45;99913.59;2384260;28;46401;-81
2022/09/28 10:54:03;;;;;;;;;1.50;1.50;;;;;16.52;50.45;99916.13;2390393;28;45354;-80
2022/09/28 10:55:19;;;;;;;;;1.25;1.25;;;;;16.54;50.35;99914.25;2383308;28;46914;-80
2022/09/28 10:56:36;;;;;;;;;1.00;1.00;;;;;16.57;49.38;99921.13;2378100;28;45465;-80
2022/09/28 10:57:49;;;;;;;;;1.00;1.00;;;;;16.54;49.30;99917.72;2384320;28;45551;-80
2022/09/28 10:59:00;;;;;;;;;3.00;2.25;;;;;16.54;50.38;99916.91;2376207;28;45231;-80
2022/09/28 11:00:41;;;;;;;;;1.00;1.00;;;;;16.52;50.94;99917.00;2384282;28;45331;-80
2022/09/28 11:02:11;;;;;;;;;4.50;2.00;;;;;16.54;50.69;99916.91;2392236;28;45412;-80
2022/09/28 11:03:24;;;;;;;;;3.00;2.00;;;;;16.56;50.85;99914.97;2393232;28;48046;-80
2022/09/28 11:04:40;;;;;;;;;1.00;1.00;;;;;16.58;49.92;99918.38;2381198;28;44701;-80
2022/09/28 11:06:03;;;;;;;;;2.75;1.25;;;;;16.61;49.98;99922.59;2379405;28;47480;-80
2022/09/28 11:07:19;;;;;;;;;2.00;2.00;;;;;16.62;50.47;99918.97;2378557;28;45482;-80
2022/09/28 11:08:40;;;;;;;;;1.00;1.00;;;;;16.67;50.30;99923.97;2387822;28;46627;-80
2022/09/28 11:09:53;;;;;;;;;2.50;0.25;;;;;16.69;49.37;99916.75;2388361;28;45197;-80
2022/09/28 11:11:13;;;;;;;;;1.75;1.00;;;;;16.72;50.05;99921.81;2385853;28;46311;-80
2022/09/28 11:12:41;;;;;;;;;1.00;1.00;;;;;16.79;49.65;99922.25;2387372;28;45361;-80
2022/09/28 11:14:02;;;;;;;;;1.75;0.75;;;;;16.83;50.13;99919.25;2390039;28;57199;-80
2022/09/28 11:15:27;;;;;;;;;2.50;2.00;;;;;16.91;50.15;99923.16;2390299;28;45162;-80
2022/09/28 11:16:38;;;;;;;;;3.75;1.75;;;;;16.96;50.88;99915.69;2388756;28;45291;-80
2022/09/28 11:17:48;;;;;;;;;3.00;1.00;;;;;17.03;50.54;99916.09;2383488;28;45239;-80
2022/09/28 11:19:24;;;;;;;;;2.25;1.00;;;;;17.11;49.54;99921.69;2385947;28;45277;-80
2022/09/28 11:20:35;;;;;;;;;1.25;1.00;;;;;17.17;48.47;99926.56;2384395;28;44785;-80
2022/09/28 11:21:45;;;;;;;;;1.25;0.00;;;;;17.20;48.49;99925.50;2390753;28;45256;-80
2022/09/28 11:22:58;;;;;;;;;3.00;1.25;;;;;17.24;49.15;99926.94;2382715;28;45725;-80
2022/09/28 11:24:20;;;;;;;;;2.00;2.00;;;;;17.27;49.09;99926.72;2385296;28;45511;-80
2022/09/28 11:25:30;;;;;;;;;1.00;1.00;;;;;17.29;49.29;99922.13;2386296;28;45176;-80
2022/09/28 11:26:44;;;;;;;;;1.00;1.00;;;;;17.33;48.72;99917.47;2385853;28;46694;-80
2022/09/28 11:27:58;;;;;;;;;3.50;2.00;;;;;17.36;47.95;99919.03;2387998;28;45243;-80
2022/09/28 11:29:25;;;;;;;;;4.25;3.00;;;;;17.41;49.78;99912.41;2388657;28;45244;-80
2022/09/28 11:30:35;;;;;;;;;2.00;2.00;;;;;17.47;49.96;99923.53;2388348;28;45468;-80
2022/09/28 11:31:46;;;;;;;;;2.50;2.50;;;;;17.50;50.13;99916.19;2385944;28;45490;-80
2022/09/28 11:33:02;;;;;;;;;3.00;1.00;;;;;17.53;47.10;99918.59;2386380;28;45159;-80
2022/09/28 11:34:22;;;;;;;;;2.00;1.00;;;;;17.57;48.62;99918.38;2388746;28;45443;-80
2022/09/28 11:35:50;;;;;;;;;6.00;4.00;;;;;17.54;48.52;99914.97;2383691;28;45284;-80
2022/09/28 11:37:12;;;;;;;;;1.50;1.50;;;;;17.54;49.13;99917.63;2378360;28;47266;-80
2022/09/28 11:38:32;;;;;;;;;1.00;1.00;;;;;17.55;47.90;99913.19;2381317;28;45382;-80
2022/09/28 11:40:16;;;;;;;;;1.00;1.00;;;;;17.51;47.77;99919.66;2389202;28;45429;-80
2022/09/28 11:41:41;;;;;;;;;1.00;1.00;;;;;17.48;48.71;99915.44;2389936;28;45343;-79
2022/09/28 11:43:06;;;;;;;;;1.75;1.75;;;;;17.47;47.79;99918.22;2380128;28;46559;-79
2022/09/28 11:44:19;;;;;;;;;0.50;0.00;;;;;17.46;48.88;99917.38;2383172;28;45385;-79
2022/09/28 11:45:53;;;;;;;;;3.00;3.00;;;;;17.48;49.15;99920.75;2381282;28;46620;-79
2022/09/28 11:47:45;;;;;;;;;1.25;1.25;;;;;17.52;48.67;99911.59;2386935;28;45260;-79
2022/09/28 11:49:12;;;;;;;;;2.00;2.00;;;;;17.56;48.44;99911.38;2364966;29;46620;-79
2022/09/28 11:50:43;;;;;;;;;6.00;4.00;;;;;17.60;48.27;99915.47;2365216;29;45484;-79
2022/09/28 11:52:00;;;;;;;;;4.75;2.75;;;;;17.60;48.92;99916.34;2365207;29;45538;-79
2022/09/28 11:53:26;;;;;;;;;1.00;1.00;;;;;17.63;48.81;99909.94;2355876;29;45322;-79
2022/09/28 11:54:43;;;;;;;;;3.75;1.00;;;;;17.66;48.76;99904.38;2362572;28;47293;-79
2022/09/28 11:56:14;;;;;;;;;2.75;1.00;;;;;17.68;48.75;99907.75;2368586;28;44673;-80
2022/09/28 11:57:30;;;;;;;;;4.00;2.00;;;;;17.70;48.36;99912.97;2378652;28;47173;-79
2022/09/28 11:58:43;;;;;;;;;1.00;1.00;;;;;17.72;48.79;99909.22;2376478;28;45292;-80
2022/09/28 11:59:56;;;;;;;;;2.25;2.00;;;;;17.73;48.80;99916.22;2379477;28;46469;-80
2022/09/28 12:01:23;;;;;;;;;2.00;2.00;;;;;17.71;47.55;99902.22;2384164;28;44656;-80